Terminal Aerodrome Forecast
Issued by NWS Lake Charles, LA

Home | Current Version | Previous Version | Text Only | Print | Product List | Glossary On
Versions: 1 2 3 4 5 6 7 8 9 10 11 12 13 14 15 16 17 18 19
000
FTUS44 KLCH 010500
TAFBPT
TAF
KBPT 010520Z 0106/0206 18005KT P6SM -SHRA SCT030 BKN120
     FM011000 24006KT P6SM VCSH SCT030 OVC100
     FM011400 26006KT P6SM -SHRA VCTS BKN035CB
      TEMPO 0115/0119 3SM TSRA BKN025CB
     FM020200 VRB05KT P6SM SCT050 BKN200=

USA.gov is the U.S. government's official web portal to all federal, state and local government web resources and services.